Le Roy, KS (66857)

5:51 PM CDT on May 29, 2015 (GMT -0500)
KS | | Change Station
CLOSE
Current Station
Personal Weather Station
Location: Burlington, KS
Elevation: 1050 ft
Nearby Weather Stations
Active Advisory: Flood Warning

Elev 1050 ft 38.19 °N, 95.74 °W | Updated 0 second ago

Overcast
Overcast
71.2 °F
Feels Like 71.2 °F
N
5.8
Wind Variable Wind from East
Gusts 6.7 mph

Today
High -- | Low -- °F
--% Chance of Precip.
Yesterday
High -- | Low -- °F
Precip. -- in
6:02 AM 8:37 PM
Waxing Gibbous, 86% visible
Pressure 29.96 in
Visibility 10.0 miles
Clouds Few 600 ft
Few 1500 ft
Dew Point 68 °F
Humidity 90%
Rainfall 0.79 in
Snow Depth Not available.
UV 4 out of 12
Pollen .90 out of 12
Air Quality Not available.
Flu Activity No Activity
SPECI KCNU 292212Z AUTO 12005KT 10SM FEW006 FEW015 21/19 A2996 RMK AO2 T02060194

More Conditions Fewer Conditions

Pressure 29.96 in
Visibility 10.0 miles
Clouds Few 600 ft
Few 1500 ft
Dew Point 68 °F
Humidity 90%
Rainfall 0.79 in
Snow Depth Not available.
UV 4 out of 12
Pollen .90 out of 12
Air Quality Not available.
Flu Activity No Activity
SPECI KCNU 292212Z AUTO 12005KT 10SM FEW006 FEW015 21/19 A2996 RMK AO2 T02060194

More Conditions Fewer Conditions

10-Day Weather Forecast

Almanac

Astronomy

May. 29, 2015 Rise Set
Actual Time
Civil Twilight
Nautical Twilight
Astronomical Twilight
Moon
Length of Visible Light
Length of Day
Tomorrow will be .
, % of the Moon is Illuminated

Today's Extremes

State Highs State Lows

Community

WunderPhotos

Upload Photos

1,825,396 photos uploaded!

WunderBlogs® & News

Nearby

Air Quality

  Air Quality AQ Index Pollutant
Not available.

Snow Depth

Station Depth Elevation

Earthquake Activity

City Distance Mag. Time & Date
Minimum magnitude displayed is 2.5.

Coastal Water Temperatures

Place Temperature

Stations

Nearby Weather Stations

Station Location Temp. Windchill Dew Point Humidity Wind Precip. Elev Updated Type
                   
Flood Warning
Statement as of 3:47 PM CDT on May 29, 2015

The Flood Warning continues for
the Neosho river near Neosho Rapids.
* Until Saturday evening.
* At 3:30 PM Friday the stage was 23.9 feet.
* Flood stage is 22.0 feet.
* Moderate flooding is occurring and moderate flooding is forecast.
* Forecast... the river will remain steady near 23.9 feet through this
evening. The river will fall below flood stage Saturday morning.
* Impact... at 23.0 feet... water overtops Road 145 on the west side of
the bridge over the Neosho river.


Lat... Lon 3838 9606 3842 9605 3830 9586 3826 9588